sensor_id;sensor_type;location;lat;lon;timestamp;P1;durP1;ratioP1;P2;durP2;ratioP2
24147;SDS011;12309;51.450;-2.624;2024-02-23T00:29:30;6.30;;;1.80;;
24147;SDS011;12309;51.450;-2.624;2024-02-23T00:31:56;5.30;;;1.70;;
24147;SDS011;12309;51.450;-2.624;2024-02-23T00:34:22;9.07;;;2.30;;
24147;SDS011;12309;51.450;-2.624;2024-02-23T00:39:19;7.50;;;2.20;;
24147;SDS011;12309;51.450;-2.624;2024-02-23T00:41:45;7.60;;;2.03;;
24147;SDS011;12309;51.450;-2.624;2024-02-23T00:44:11;6.77;;;2.20;;
24147;SDS011;12309;51.450;-2.624;2024-02-23T00:46:38;5.80;;;2.00;;
24147;SDS011;12309;51.450;-2.624;2024-02-23T00:51:47;5.07;;;1.77;;
24147;SDS011;12309;51.450;-2.624;2024-02-23T01:16:43;2.53;;;1.00;;
24147;SDS011;12309;51.450;-2.624;2024-02-23T01:19:09;1.60;;;0.93;;
24147;SDS011;12309;51.450;-2.624;2024-02-23T01:26:41;2.47;;;0.97;;
24147;SDS011;12309;51.450;-2.624;2024-02-23T01:29:07;1.60;;;0.80;;
24147;SDS011;12309;51.450;-2.624;2024-02-23T01:36:58;1.40;;;0.87;;
24147;SDS011;12309;51.450;-2.624;2024-02-23T01:39:25;1.57;;;0.80;;
24147;SDS011;12309;51.450;-2.624;2024-02-23T01:41:51;1.53;;;0.70;;
24147;SDS011;12309;51.450;-2.624;2024-02-23T01:44:17;0.93;;;0.60;;
24147;SDS011;12309;51.450;-2.624;2024-02-23T01:46:45;1.40;;;0.70;;
24147;SDS011;12309;51.450;-2.624;2024-02-23T01:49:11;2.07;;;0.77;;
24147;SDS011;12309;51.450;-2.624;2024-02-23T01:54:29;0.77;;;0.70;;
24147;SDS011;12309;51.450;-2.624;2024-02-23T01:56:56;1.33;;;0.77;;
24147;SDS011;12309;51.450;-2.624;2024-02-23T01:59:26;2.00;;;0.83;;
24147;SDS011;12309;51.450;-2.624;2024-02-23T02:01:53;3.40;;;1.00;;
24147;SDS011;12309;51.450;-2.624;2024-02-23T02:17:44;1.47;;;0.80;;
24147;SDS011;12309;51.450;-2.624;2024-02-23T02:20:13;2.37;;;0.70;;
24147;SDS011;12309;51.450;-2.624;2024-02-23T02:35:32;1.67;;;0.80;;
24147;SDS011;12309;51.450;-2.624;2024-02-23T02:37:58;1.37;;;0.70;;
24147;SDS011;12309;51.450;-2.624;2024-02-23T02:40:24;3.10;;;0.90;;
24147;SDS011;12309;51.450;-2.624;2024-02-23T02:42:50;1.73;;;0.70;;
24147;SDS011;12309;51.450;-2.624;2024-02-23T02:45:16;3.13;;;1.00;;
24147;SDS011;12309;51.450;-2.624;2024-02-23T02:47:42;1.93;;;0.90;;
24147;SDS011;12309;51.450;-2.624;2024-02-23T02:50:19;1.80;;;0.70;;
24147;SDS011;12309;51.450;-2.624;2024-02-23T02:52:46;2.33;;;0.80;;
24147;SDS011;12309;51.450;-2.624;2024-02-23T02:55:12;1.83;;;0.70;;
24147;SDS011;12309;51.450;-2.624;2024-02-23T02:57:38;4.67;;;1.23;;
24147;SDS011;12309;51.450;-2.624;2024-02-23T03:00:04;0.97;;;0.80;;
24147;SDS011;12309;51.450;-2.624;2024-02-23T03:02:31;2.10;;;0.80;;
24147;SDS011;12309;51.450;-2.624;2024-02-23T03:04:57;5.43;;;1.47;;
24147;SDS011;12309;51.450;-2.624;2024-02-23T03:07:23;2.07;;;1.00;;
24147;SDS011;12309;51.450;-2.624;2024-02-23T03:09:49;1.97;;;0.77;;
24147;SDS011;12309;51.450;-2.624;2024-02-23T03:12:15;3.80;;;1.23;;
24147;SDS011;12309;51.450;-2.624;2024-02-23T03:14:42;1.90;;;0.77;;
24147;SDS011;12309;51.450;-2.624;2024-02-23T03:17:08;3.20;;;0.83;;
24147;SDS011;12309;51.450;-2.624;2024-02-23T03:19:36;2.47;;;1.00;;
24147;SDS011;12309;51.450;-2.624;2024-02-23T03:22:02;3.83;;;1.27;;
24147;SDS011;12309;51.450;-2.624;2024-02-23T03:24:28;5.17;;;1.30;;
24147;SDS011;12309;51.450;-2.624;2024-02-23T03:29:21;3.80;;;1.13;;
24147;SDS011;12309;51.450;-2.624;2024-02-23T03:31:50;2.43;;;0.80;;
24147;SDS011;12309;51.450;-2.624;2024-02-23T03:34:16;2.47;;;0.80;;
24147;SDS011;12309;51.450;-2.624;2024-02-23T03:36:42;6.47;;;1.60;;
24147;SDS011;12309;51.450;-2.624;2024-02-23T03:39:08;3.30;;;1.10;;
24147;SDS011;12309;51.450;-2.624;2024-02-23T03:41:35;2.63;;;0.90;;
24147;SDS011;12309;51.450;-2.624;2024-02-23T03:44:01;1.30;;;0.77;;
24147;SDS011;12309;51.450;-2.624;2024-02-23T03:46:27;4.07;;;1.13;;
24147;SDS011;12309;51.450;-2.624;2024-02-23T03:48:53;5.50;;;1.53;;
24147;SDS011;12309;51.450;-2.624;2024-02-23T03:51:19;2.60;;;1.00;;
24147;SDS011;12309;51.450;-2.624;2024-02-23T03:53:48;4.43;;;1.30;;
24147;SDS011;12309;51.450;-2.624;2024-02-23T03:56:14;5.47;;;1.30;;
24147;SDS011;12309;51.450;-2.624;2024-02-23T03:58:40;3.23;;;1.10;;
24147;SDS011;12309;51.450;-2.624;2024-02-23T04:01:06;6.77;;;1.67;;
24147;SDS011;12309;51.450;-2.624;2024-02-23T04:03:33;3.00;;;1.10;;
24147;SDS011;12309;51.450;-2.624;2024-02-23T04:06:00;4.20;;;1.40;;
24147;SDS011;12309;51.450;-2.624;2024-02-23T04:08:26;3.97;;;1.30;;
24147;SDS011;12309;51.450;-2.624;2024-02-23T04:10:52;4.97;;;1.37;;
24147;SDS011;12309;51.450;-2.624;2024-02-23T04:13:19;2.80;;;1.13;;
24147;SDS011;12309;51.450;-2.624;2024-02-23T04:15:46;4.83;;;1.40;;
24147;SDS011;12309;51.450;-2.624;2024-02-23T04:18:12;4.90;;;1.40;;
24147;SDS011;12309;51.450;-2.624;2024-02-23T04:20:38;6.00;;;1.73;;
24147;SDS011;12309;51.450;-2.624;2024-02-23T04:23:04;4.40;;;1.30;;
24147;SDS011;12309;51.450;-2.624;2024-02-23T04:25:31;4.30;;;1.47;;
24147;SDS011;12309;51.450;-2.624;2024-02-23T04:27:57;6.97;;;1.90;;
24147;SDS011;12309;51.450;-2.624;2024-02-23T04:30:23;3.20;;;1.20;;
24147;SDS011;12309;51.450;-2.624;2024-02-23T04:35:15;4.63;;;1.40;;
24147;SDS011;12309;51.450;-2.624;2024-02-23T04:37:44;7.13;;;1.63;;
24147;SDS011;12309;51.450;-2.624;2024-02-23T04:40:10;6.13;;;1.73;;
24147;SDS011;12309;51.450;-2.624;2024-02-23T04:42:36;6.27;;;1.80;;
24147;SDS011;12309;51.450;-2.624;2024-02-23T04:45:03;4.53;;;1.43;;
24147;SDS011;12309;51.450;-2.624;2024-02-23T04:47:30;7.60;;;2.20;;
24147;SDS011;12309;51.450;-2.624;2024-02-23T04:49:56;4.90;;;1.60;;
24147;SDS011;12309;51.450;-2.624;2024-02-23T04:52:22;3.57;;;1.70;;
24147;SDS011;12309;51.450;-2.624;2024-02-23T04:54:48;5.23;;;1.53;;
24147;SDS011;12309;51.450;-2.624;2024-02-23T04:57:14;7.93;;;2.00;;
24147;SDS011;12309;51.450;-2.624;2024-02-23T04:59:40;3.27;;;1.40;;
24147;SDS011;12309;51.450;-2.624;2024-02-23T05:02:06;4.30;;;1.63;;
24147;SDS011;12309;51.450;-2.624;2024-02-23T05:04:32;4.37;;;1.70;;
24147;SDS011;12309;51.450;-2.624;2024-02-23T05:06:58;5.23;;;1.60;;
24147;SDS011;12309;51.450;-2.624;2024-02-23T05:09:24;4.33;;;1.47;;
24147;SDS011;12309;51.450;-2.624;2024-02-23T05:11:50;3.40;;;1.43;;
24147;SDS011;12309;51.450;-2.624;2024-02-23T05:14:16;4.13;;;1.67;;
24147;SDS011;12309;51.450;-2.624;2024-02-23T05:16:42;10.17;;;2.60;;
24147;SDS011;12309;51.450;-2.624;2024-02-23T05:19:08;4.97;;;1.83;;
24147;SDS011;12309;51.450;-2.624;2024-02-23T05:21:34;7.27;;;2.00;;
24147;SDS011;12309;51.450;-2.624;2024-02-23T05:24:00;4.33;;;1.63;;
24147;SDS011;12309;51.450;-2.624;2024-02-23T05:26:26;6.03;;;1.73;;
24147;SDS011;12309;51.450;-2.624;2024-02-23T05:28:52;7.80;;;2.17;;
24147;SDS011;12309;51.450;-2.624;2024-02-23T05:32:21;4.00;;;1.67;;
24147;SDS011;12309;51.450;-2.624;2024-02-23T05:34:47;6.20;;;1.90;;
24147;SDS011;12309;51.450;-2.624;2024-02-23T05:37:16;5.50;;;1.90;;
24147;SDS011;12309;51.450;-2.624;2024-02-23T05:39:42;4.30;;;1.83;;
24147;SDS011;12309;51.450;-2.624;2024-02-23T05:42:09;8.70;;;2.47;;
24147;SDS011;12309;51.450;-2.624;2024-02-23T05:44:35;8.23;;;2.30;;
24147;SDS011;12309;51.450;-2.624;2024-02-23T05:47:02;7.13;;;2.20;;
24147;SDS011;12309;51.450;-2.624;2024-02-23T05:49:28;4.03;;;1.80;;
24147;SDS011;12309;51.450;-2.624;2024-02-23T05:51:54;5.13;;;1.83;;
24147;SDS011;12309;51.450;-2.624;2024-02-23T05:54:20;5.77;;;2.10;;
24147;SDS011;12309;51.450;-2.624;2024-02-23T05:56:46;5.73;;;1.73;;
24147;SDS011;12309;51.450;-2.624;2024-02-23T05:59:12;9.53;;;2.40;;
24147;SDS011;12309;51.450;-2.624;2024-02-23T06:01:38;7.13;;;1.97;;
24147;SDS011;12309;51.450;-2.624;2024-02-23T06:04:04;5.60;;;1.77;;
24147;SDS011;12309;51.450;-2.624;2024-02-23T06:06:31;7.40;;;1.90;;
24147;SDS011;12309;51.450;-2.624;2024-02-23T06:08:57;6.23;;;1.93;;
24147;SDS011;12309;51.450;-2.624;2024-02-23T06:11:24;4.43;;;1.93;;
24147;SDS011;12309;51.450;-2.624;2024-02-23T06:13:50;5.37;;;1.97;;
24147;SDS011;12309;51.450;-2.624;2024-02-23T06:16:15;6.97;;;2.03;;
24147;SDS011;12309;51.450;-2.624;2024-02-23T06:18:41;5.77;;;1.90;;
24147;SDS011;12309;51.450;-2.624;2024-02-23T06:21:14;4.47;;;1.90;;
24147;SDS011;12309;51.450;-2.624;2024-02-23T06:23:40;9.33;;;2.33;;
24147;SDS011;12309;51.450;-2.624;2024-02-23T06:26:06;8.37;;;2.30;;
24147;SDS011;12309;51.450;-2.624;2024-02-23T06:28:33;4.63;;;2.10;;
24147;SDS011;12309;51.450;-2.624;2024-02-23T06:30:59;4.10;;;1.70;;
24147;SDS011;12309;51.450;-2.624;2024-02-23T06:33:25;5.83;;;2.13;;
24147;SDS011;12309;51.450;-2.624;2024-02-23T06:35:51;4.20;;;1.80;;
24147;SDS011;12309;51.450;-2.624;2024-02-23T06:38:17;4.67;;;1.80;;
24147;SDS011;12309;51.450;-2.624;2024-02-23T06:40:43;6.87;;;2.03;;
24147;SDS011;12309;51.450;-2.624;2024-02-23T06:43:09;6.00;;;1.93;;
24147;SDS011;12309;51.450;-2.624;2024-02-23T06:45:35;5.27;;;1.87;;
24147;SDS011;12309;51.450;-2.624;2024-02-23T06:48:01;5.03;;;1.97;;
24147;SDS011;12309;51.450;-2.624;2024-02-23T06:50:28;7.80;;;2.30;;
24147;SDS011;12309;51.450;-2.624;2024-02-23T06:52:54;11.07;;;2.63;;
24147;SDS011;12309;51.450;-2.624;2024-02-23T06:55:20;4.73;;;1.90;;
24147;SDS011;12309;51.450;-2.624;2024-02-23T06:57:46;8.63;;;2.37;;
24147;SDS011;12309;51.450;-2.624;2024-02-23T07:00:13;6.77;;;2.00;;
24147;SDS011;12309;51.450;-2.624;2024-02-23T07:02:39;7.60;;;2.60;;
24147;SDS011;12309;51.450;-2.624;2024-02-23T07:05:05;9.20;;;2.77;;
24147;SDS011;12309;51.450;-2.624;2024-02-23T07:07:32;4.37;;;2.10;;
24147;SDS011;12309;51.450;-2.624;2024-02-23T07:09:58;7.67;;;2.20;;
24147;SDS011;12309;51.450;-2.624;2024-02-23T07:12:25;5.53;;;2.20;;
24147;SDS011;12309;51.450;-2.624;2024-02-23T07:14:54;4.63;;;1.90;;
24147;SDS011;12309;51.450;-2.624;2024-02-23T07:17:20;5.03;;;1.77;;
24147;SDS011;12309;51.450;-2.624;2024-02-23T07:19:53;9.27;;;2.33;;
24147;SDS011;12309;51.450;-2.624;2024-02-23T07:22:26;4.00;;;1.87;;
24147;SDS011;12309;51.450;-2.624;2024-02-23T07:24:52;12.67;;;2.70;;
24147;SDS011;12309;51.450;-2.624;2024-02-23T07:27:18;7.00;;;2.33;;
24147;SDS011;12309;51.450;-2.624;2024-02-23T07:29:44;6.10;;;2.00;;
24147;SDS011;12309;51.450;-2.624;2024-02-23T07:32:10;5.97;;;2.00;;
24147;SDS011;12309;51.450;-2.624;2024-02-23T07:34:36;3.90;;;1.70;;
24147;SDS011;12309;51.450;-2.624;2024-02-23T07:37:02;8.80;;;2.53;;
24147;SDS011;12309;51.450;-2.624;2024-02-23T07:39:29;5.87;;;2.07;;
24147;SDS011;12309;51.450;-2.624;2024-02-23T07:41:55;8.50;;;2.13;;
24147;SDS011;12309;51.450;-2.624;2024-02-23T07:44:21;5.63;;;1.80;;
24147;SDS011;12309;51.450;-2.624;2024-02-23T07:46:47;6.87;;;2.13;;
24147;SDS011;12309;51.450;-2.624;2024-02-23T07:49:13;5.60;;;1.90;;
24147;SDS011;12309;51.450;-2.624;2024-02-23T07:51:43;6.30;;;2.13;;
24147;SDS011;12309;51.450;-2.624;2024-02-23T07:54:09;6.23;;;2.00;;
24147;SDS011;12309;51.450;-2.624;2024-02-23T07:56:35;4.90;;;1.83;;
24147;SDS011;12309;51.450;-2.624;2024-02-23T07:59:01;4.40;;;1.80;;
24147;SDS011;12309;51.450;-2.624;2024-02-23T08:01:28;5.47;;;2.00;;
24147;SDS011;12309;51.450;-2.624;2024-02-23T08:03:54;5.83;;;2.07;;
24147;SDS011;12309;51.450;-2.624;2024-02-23T08:06:20;5.83;;;1.87;;
24147;SDS011;12309;51.450;-2.624;2024-02-23T08:08:46;9.00;;;2.40;;
24147;SDS011;12309;51.450;-2.624;2024-02-23T08:11:12;8.43;;;2.27;;
24147;SDS011;12309;51.450;-2.624;2024-02-23T08:13:38;6.00;;;2.00;;
24147;SDS011;12309;51.450;-2.624;2024-02-23T08:16:05;4.67;;;2.00;;
24147;SDS011;12309;51.450;-2.624;2024-02-23T08:18:31;5.57;;;2.10;;
24147;SDS011;12309;51.450;-2.624;2024-02-23T08:20:58;5.07;;;1.90;;
24147;SDS011;12309;51.450;-2.624;2024-02-23T08:23:27;4.60;;;1.70;;
24147;SDS011;12309;51.450;-2.624;2024-02-23T08:25:53;5.37;;;1.80;;
24147;SDS011;12309;51.450;-2.624;2024-02-23T08:28:21;3.17;;;1.70;;
24147;SDS011;12309;51.450;-2.624;2024-02-23T08:30:47;6.23;;;1.83;;
24147;SDS011;12309;51.450;-2.624;2024-02-23T08:33:13;2.87;;;1.77;;
24147;SDS011;12309;51.450;-2.624;2024-02-23T08:35:39;2.47;;;1.30;;
24147;SDS011;12309;51.450;-2.624;2024-02-23T08:38:05;7.93;;;1.97;;
24147;SDS011;12309;51.450;-2.624;2024-02-23T08:40:32;4.87;;;1.70;;
24147;SDS011;12309;51.450;-2.624;2024-02-23T08:45:33;3.90;;;1.60;;
24147;SDS011;12309;51.450;-2.624;2024-02-23T08:47:59;3.87;;;1.57;;
24147;SDS011;12309;51.450;-2.624;2024-02-23T08:50:26;2.57;;;1.33;;
24147;SDS011;12309;51.450;-2.624;2024-02-23T08:55:18;5.60;;;1.73;;
24147;SDS011;12309;51.450;-2.624;2024-02-23T08:57:44;3.63;;;1.47;;
24147;SDS011;12309;51.450;-2.624;2024-02-23T09:02:45;2.90;;;1.40;;
24147;SDS011;12309;51.450;-2.624;2024-02-23T09:05:11;1.37;;;1.27;;
24147;SDS011;12309;51.450;-2.624;2024-02-23T09:07:37;1.50;;;1.20;;
24147;SDS011;12309;51.450;-2.624;2024-02-23T09:10:03;2.23;;;1.30;;
24147;SDS011;12309;51.450;-2.624;2024-02-23T09:12:31;3.67;;;1.40;;
24147;SDS011;12309;51.450;-2.624;2024-02-23T09:14:57;1.43;;;1.27;;
24147;SDS011;12309;51.450;-2.624;2024-02-23T09:17:23;1.90;;;1.70;;
24147;SDS011;12309;51.450;-2.624;2024-02-23T09:19:50;3.43;;;1.73;;
24147;SDS011;12309;51.450;-2.624;2024-02-23T09:22:16;1.67;;;1.50;;
24147;SDS011;12309;51.450;-2.624;2024-02-23T09:24:42;4.83;;;1.73;;
24147;SDS011;12309;51.450;-2.624;2024-02-23T09:27:08;7.00;;;1.83;;
24147;SDS011;12309;51.450;-2.624;2024-02-23T09:29:34;2.13;;;1.53;;
24147;SDS011;12309;51.450;-2.624;2024-02-23T09:32:00;1.97;;;1.47;;
24147;SDS011;12309;51.450;-2.624;2024-02-23T09:34:26;2.40;;;1.63;;
24147;SDS011;12309;51.450;-2.624;2024-02-23T09:36:52;3.80;;;1.70;;
24147;SDS011;12309;51.450;-2.624;2024-02-23T09:39:19;4.90;;;1.87;;
24147;SDS011;12309;51.450;-2.624;2024-02-23T09:41:45;1.63;;;1.53;;
24147;SDS011;12309;51.450;-2.624;2024-02-23T09:44:11;2.47;;;1.43;;
24147;SDS011;12309;51.450;-2.624;2024-02-23T09:46:39;3.23;;;1.60;;
24147;SDS011;12309;51.450;-2.624;2024-02-23T09:49:05;3.57;;;1.87;;
24147;SDS011;12309;51.450;-2.624;2024-02-23T09:56:39;2.03;;;1.40;;
24147;SDS011;12309;51.450;-2.624;2024-02-23T09:59:04;2.20;;;1.23;;
24147;SDS011;12309;51.450;-2.624;2024-02-23T10:01:31;2.83;;;1.30;;
24147;SDS011;12309;51.450;-2.624;2024-02-23T10:03:58;3.67;;;1.60;;
24147;SDS011;12309;51.450;-2.624;2024-02-23T10:06:25;1.70;;;1.30;;
24147;SDS011;12309;51.450;-2.624;2024-02-23T10:08:51;3.07;;;1.50;;
24147;SDS011;12309;51.450;-2.624;2024-02-23T10:11:19;2.77;;;1.40;;
24147;SDS011;12309;51.450;-2.624;2024-02-23T10:13:48;1.20;;;1.20;;
24147;SDS011;12309;51.450;-2.624;2024-02-23T10:16:15;2.07;;;1.20;;
24147;SDS011;12309;51.450;-2.624;2024-02-23T10:18:41;3.20;;;1.80;;
24147;SDS011;12309;51.450;-2.624;2024-02-23T10:21:07;1.50;;;1.40;;
24147;SDS011;12309;51.450;-2.624;2024-02-23T10:23:33;1.73;;;1.37;;
24147;SDS011;12309;51.450;-2.624;2024-02-23T10:25:59;1.47;;;1.43;;
24147;SDS011;12309;51.450;-2.624;2024-02-23T10:28:25;1.40;;;1.30;;
24147;SDS011;12309;51.450;-2.624;2024-02-23T10:30:51;2.27;;;1.43;;
24147;SDS011;12309;51.450;-2.624;2024-02-23T10:33:18;2.40;;;1.50;;
24147;SDS011;12309;51.450;-2.624;2024-02-23T10:35:47;2.27;;;1.60;;
24147;SDS011;12309;51.450;-2.624;2024-02-23T10:38:19;1.53;;;1.43;;
24147;SDS011;12309;51.450;-2.624;2024-02-23T10:40:46;1.60;;;1.30;;
24147;SDS011;12309;51.450;-2.624;2024-02-23T10:43:15;1.70;;;1.53;;
24147;SDS011;12309;51.450;-2.624;2024-02-23T10:45:44;1.80;;;1.63;;
24147;SDS011;12309;51.450;-2.624;2024-02-23T10:48:11;2.07;;;1.40;;
24147;SDS011;12309;51.450;-2.624;2024-02-23T10:50:37;1.50;;;1.40;;
24147;SDS011;12309;51.450;-2.624;2024-02-23T10:53:04;1.67;;;1.40;;
24147;SDS011;12309;51.450;-2.624;2024-02-23T10:55:33;1.30;;;1.30;;
24147;SDS011;12309;51.450;-2.624;2024-02-23T10:58:02;2.43;;;1.40;;
24147;SDS011;12309;51.450;-2.624;2024-02-23T11:00:28;1.90;;;1.40;;
24147;SDS011;12309;51.450;-2.624;2024-02-23T11:02:54;1.87;;;1.40;;
24147;SDS011;12309;51.450;-2.624;2024-02-23T11:05:21;2.03;;;1.40;;
24147;SDS011;12309;51.450;-2.624;2024-02-23T11:07:47;1.60;;;1.50;;
24147;SDS011;12309;51.450;-2.624;2024-02-23T11:10:17;2.90;;;1.57;;
24147;SDS011;12309;51.450;-2.624;2024-02-23T11:12:43;1.73;;;1.53;;
24147;SDS011;12309;51.450;-2.624;2024-02-23T11:15:09;3.60;;;1.90;;
24147;SDS011;12309;51.450;-2.624;2024-02-23T11:17:51;1.87;;;1.30;;
24147;SDS011;12309;51.450;-2.624;2024-02-23T11:20:17;3.07;;;1.60;;
24147;SDS011;12309;51.450;-2.624;2024-02-23T11:22:44;1.77;;;1.40;;
24147;SDS011;12309;51.450;-2.624;2024-02-23T11:25:10;1.97;;;1.50;;
24147;SDS011;12309;51.450;-2.624;2024-02-23T11:27:36;1.67;;;1.30;;
24147;SDS011;12309;51.450;-2.624;2024-02-23T11:30:06;3.03;;;1.43;;
24147;SDS011;12309;51.450;-2.624;2024-02-23T11:32:37;1.50;;;1.40;;
24147;SDS011;12309;51.450;-2.624;2024-02-23T11:35:07;3.40;;;1.50;;
24147;SDS011;12309;51.450;-2.624;2024-02-23T11:37:53;1.67;;;1.50;;
24147;SDS011;12309;51.450;-2.624;2024-02-23T11:40:27;2.47;;;1.63;;
24147;SDS011;12309;51.450;-2.624;2024-02-23T11:42:56;2.70;;;1.40;;
24147;SDS011;12309;51.450;-2.624;2024-02-23T11:45:27;3.27;;;1.60;;
24147;SDS011;12309;51.450;-2.624;2024-02-23T11:47:54;4.07;;;1.60;;
24147;SDS011;12309;51.450;-2.624;2024-02-23T11:50:19;1.60;;;1.50;;
24147;SDS011;12309;51.450;-2.624;2024-02-23T11:52:46;2.57;;;1.50;;
24147;SDS011;12309;51.450;-2.624;2024-02-23T11:55:12;2.67;;;1.60;;
24147;SDS011;12309;51.450;-2.624;2024-02-23T11:57:39;2.57;;;1.50;;
24147;SDS011;12309;51.450;-2.624;2024-02-23T12:00:05;2.43;;;1.80;;
24147;SDS011;12309;51.450;-2.624;2024-02-23T12:02:34;4.20;;;1.80;;
24147;SDS011;12309;51.450;-2.624;2024-02-23T12:05:00;2.67;;;1.60;;
24147;SDS011;12309;51.450;-2.624;2024-02-23T12:07:26;2.03;;;1.80;;
24147;SDS011;12309;51.450;-2.624;2024-02-23T12:09:54;3.57;;;1.60;;
24147;SDS011;12309;51.450;-2.624;2024-02-23T12:12:21;1.93;;;1.60;;
24147;SDS011;12309;51.450;-2.624;2024-02-23T12:14:47;1.80;;;1.60;;
24147;SDS011;12309;51.450;-2.624;2024-02-23T12:17:13;2.13;;;1.70;;
24147;SDS011;12309;51.450;-2.624;2024-02-23T12:19:39;4.27;;;1.80;;
24147;SDS011;12309;51.450;-2.624;2024-02-23T12:22:06;2.40;;;1.83;;
24147;SDS011;12309;51.450;-2.624;2024-02-23T12:24:32;2.50;;;1.80;;
24147;SDS011;12309;51.450;-2.624;2024-02-23T12:26:58;3.43;;;1.50;;
24147;SDS011;12309;51.450;-2.624;2024-02-23T12:29:24;2.40;;;1.00;;
24147;SDS011;12309;51.450;-2.624;2024-02-23T12:31:50;1.97;;;0.90;;
24147;SDS011;12309;51.450;-2.624;2024-02-23T12:34:17;0.67;;;0.60;;
24147;SDS011;12309;51.450;-2.624;2024-02-23T12:36:46;2.50;;;0.53;;
24147;SDS011;12309;51.450;-2.624;2024-02-23T12:39:11;3.10;;;0.70;;
24147;SDS011;12309;51.450;-2.624;2024-02-23T12:41:37;0.87;;;0.70;;
24147;SDS011;12309;51.450;-2.624;2024-02-23T12:44:03;1.97;;;0.50;;
24147;SDS011;12309;51.450;-2.624;2024-02-23T12:46:29;1.20;;;0.50;;
24147;SDS011;12309;51.450;-2.624;2024-02-23T12:48:55;2.60;;;0.57;;
24147;SDS011;12309;51.450;-2.624;2024-02-23T12:51:24;1.40;;;0.50;;
24147;SDS011;12309;51.450;-2.624;2024-02-23T12:53:52;1.37;;;0.70;;
24147;SDS011;12309;51.450;-2.624;2024-02-23T12:56:17;1.27;;;0.63;;
24147;SDS011;12309;51.450;-2.624;2024-02-23T12:58:44;2.13;;;1.07;;
24147;SDS011;12309;51.450;-2.624;2024-02-23T13:01:11;1.20;;;0.60;;
24147;SDS011;12309;51.450;-2.624;2024-02-23T13:03:38;1.00;;;0.60;;
24147;SDS011;12309;51.450;-2.624;2024-02-23T13:06:07;1.45;;;0.50;;
24147;SDS011;12309;51.450;-2.624;2024-02-23T13:08:33;1.90;;;0.50;;
24147;SDS011;12309;51.450;-2.624;2024-02-23T13:10:59;2.10;;;0.38;;
24147;SDS011;12309;51.450;-2.624;2024-02-23T13:13:25;1.48;;;0.40;;
24147;SDS011;12309;51.450;-2.624;2024-02-23T13:15:52;2.78;;;0.35;;
24147;SDS011;12309;51.450;-2.624;2024-02-23T13:18:18;1.90;;;0.20;;
24147;SDS011;12309;51.450;-2.624;2024-02-23T13:20:44;1.03;;;0.30;;
24147;SDS011;12309;51.450;-2.624;2024-02-23T13:23:10;1.50;;;0.50;;
24147;SDS011;12309;51.450;-2.624;2024-02-23T13:25:37;3.50;;;0.40;;
24147;SDS011;12309;51.450;-2.624;2024-02-23T13:28:03;3.37;;;0.37;;
24147;SDS011;12309;51.450;-2.624;2024-02-23T13:30:30;2.00;;;0.40;;
24147;SDS011;12309;51.450;-2.624;2024-02-23T13:32:56;1.60;;;0.50;;
24147;SDS011;12309;51.450;-2.624;2024-02-23T13:35:22;1.07;;;0.40;;
24147;SDS011;12309;51.450;-2.624;2024-02-23T13:37:48;1.33;;;0.50;;
24147;SDS011;12309;51.450;-2.624;2024-02-23T13:40:14;1.40;;;0.40;;
24147;SDS011;12309;51.450;-2.624;2024-02-23T13:42:40;0.63;;;0.30;;
24147;SDS011;12309;51.450;-2.624;2024-02-23T13:45:07;1.80;;;0.50;;
24147;SDS011;12309;51.450;-2.624;2024-02-23T13:47:34;2.37;;;0.33;;
24147;SDS011;12309;51.450;-2.624;2024-02-23T13:50:01;2.03;;;0.50;;
24147;SDS011;12309;51.450;-2.624;2024-02-23T13:52:27;2.50;;;0.50;;
24147;SDS011;12309;51.450;-2.624;2024-02-23T13:54:53;0.77;;;0.47;;
24147;SDS011;12309;51.450;-2.624;2024-02-23T13:57:19;0.93;;;0.60;;
24147;SDS011;12309;51.450;-2.624;2024-02-23T13:59:45;1.67;;;0.67;;
24147;SDS011;12309;51.450;-2.624;2024-02-23T14:02:11;0.87;;;0.77;;
24147;SDS011;12309;51.450;-2.624;2024-02-23T14:04:37;1.63;;;1.10;;
24147;SDS011;12309;51.450;-2.624;2024-02-23T14:07:03;1.00;;;0.90;;
24147;SDS011;12309;51.450;-2.624;2024-02-23T14:09:30;1.60;;;1.00;;
24147;SDS011;12309;51.450;-2.624;2024-02-23T14:11:56;1.53;;;1.00;;
24147;SDS011;12309;51.450;-2.624;2024-02-23T14:14:22;1.30;;;1.20;;
24147;SDS011;12309;51.450;-2.624;2024-02-23T14:16:48;17.37;;;6.77;;
24147;SDS011;12309;51.450;-2.624;2024-02-23T14:19:14;20.63;;;8.67;;
24147;SDS011;12309;51.450;-2.624;2024-02-23T14:21:40;4.77;;;2.77;;
24147;SDS011;12309;51.450;-2.624;2024-02-23T14:24:06;4.90;;;2.40;;
24147;SDS011;12309;51.450;-2.624;2024-02-23T14:26:32;2.25;;;1.92;;
24147;SDS011;12309;51.450;-2.624;2024-02-23T14:28:59;1.75;;;1.10;;
24147;SDS011;12309;51.450;-2.624;2024-02-23T14:31:25;2.17;;;0.60;;
24147;SDS011;12309;51.450;-2.624;2024-02-23T14:33:51;1.40;;;0.52;;
24147;SDS011;12309;51.450;-2.624;2024-02-23T14:36:17;2.38;;;0.60;;
24147;SDS011;12309;51.450;-2.624;2024-02-23T14:38:43;1.35;;;0.47;;
24147;SDS011;12309;51.450;-2.624;2024-02-23T14:41:09;1.05;;;0.40;;
24147;SDS011;12309;51.450;-2.624;2024-02-23T14:43:36;2.88;;;0.40;;
24147;SDS011;12309;51.450;-2.624;2024-02-23T14:46:02;0.65;;;0.35;;
24147;SDS011;12309;51.450;-2.624;2024-02-23T14:48:30;0.73;;;0.47;;
24147;SDS011;12309;51.450;-2.624;2024-02-23T14:50:56;1.58;;;0.30;;
24147;SDS011;12309;51.450;-2.624;2024-02-23T14:53:23;0.82;;;0.30;;
24147;SDS011;12309;51.450;-2.624;2024-02-23T14:55:49;2.22;;;0.40;;
24147;SDS011;12309;51.450;-2.624;2024-02-23T14:58:15;0.97;;;0.30;;
24147;SDS011;12309;51.450;-2.624;2024-02-23T15:00:40;0.87;;;0.30;;
24147;SDS011;12309;51.450;-2.624;2024-02-23T15:03:06;2.83;;;0.53;;
24147;SDS011;12309;51.450;-2.624;2024-02-23T15:05:34;4.83;;;0.47;;
24147;SDS011;12309;51.450;-2.624;2024-02-23T15:08:00;5.30;;;0.57;;
24147;SDS011;12309;51.450;-2.624;2024-02-23T15:10:26;3.53;;;0.70;;
24147;SDS011;12309;51.450;-2.624;2024-02-23T15:12:53;1.73;;;0.47;;
24147;SDS011;12309;51.450;-2.624;2024-02-23T15:15:19;3.00;;;0.60;;
24147;SDS011;12309;51.450;-2.624;2024-02-23T15:17:45;6.83;;;0.70;;
24147;SDS011;12309;51.450;-2.624;2024-02-23T15:20:13;4.80;;;0.70;;
24147;SDS011;12309;51.450;-2.624;2024-02-23T15:22:39;1.53;;;0.60;;
24147;SDS011;12309;51.450;-2.624;2024-02-23T15:25:07;2.83;;;0.70;;
24147;SDS011;12309;51.450;-2.624;2024-02-23T15:27:34;2.10;;;0.87;;
24147;SDS011;12309;51.450;-2.624;2024-02-23T15:30:00;4.73;;;0.83;;
24147;SDS011;12309;51.450;-2.624;2024-02-23T15:32:26;1.60;;;0.60;;
24147;SDS011;12309;51.450;-2.624;2024-02-23T15:34:52;3.07;;;0.90;;
24147;SDS011;12309;51.450;-2.624;2024-02-23T15:37:18;1.30;;;0.70;;
24147;SDS011;12309;51.450;-2.624;2024-02-23T15:39:44;1.77;;;0.90;;
24147;SDS011;12309;51.450;-2.624;2024-02-23T15:42:12;3.03;;;0.70;;
24147;SDS011;12309;51.450;-2.624;2024-02-23T15:44:38;2.10;;;1.00;;
24147;SDS011;12309;51.450;-2.624;2024-02-23T15:47:04;1.40;;;0.70;;
24147;SDS011;12309;51.450;-2.624;2024-02-23T15:49:30;0.80;;;0.80;;
24147;SDS011;12309;51.450;-2.624;2024-02-23T15:51:57;1.53;;;0.80;;
24147;SDS011;12309;51.450;-2.624;2024-02-23T15:54:23;2.87;;;0.90;;
24147;SDS011;12309;51.450;-2.624;2024-02-23T15:56:52;0.90;;;0.80;;
24147;SDS011;12309;51.450;-2.624;2024-02-23T15:59:18;0.70;;;0.70;;
24147;SDS011;12309;51.450;-2.624;2024-02-23T16:01:45;1.20;;;0.80;;
24147;SDS011;12309;51.450;-2.624;2024-02-23T16:04:10;0.77;;;0.77;;
24147;SDS011;12309;51.450;-2.624;2024-02-23T16:06:36;2.23;;;1.07;;
24147;SDS011;12309;51.450;-2.624;2024-02-23T16:09:02;2.20;;;0.87;;
24147;SDS011;12309;51.450;-2.624;2024-02-23T16:11:32;1.83;;;1.13;;
24147;SDS011;12309;51.450;-2.624;2024-02-23T16:13:59;4.27;;;1.30;;
24147;SDS011;12309;51.450;-2.624;2024-02-23T16:16:24;2.60;;;1.37;;
24147;SDS011;12309;51.450;-2.624;2024-02-23T16:18:51;1.23;;;1.00;;
24147;SDS011;12309;51.450;-2.624;2024-02-23T16:21:16;1.70;;;1.10;;
24147;SDS011;12309;51.450;-2.624;2024-02-23T16:23:42;4.43;;;1.40;;